Lincoln, Massachusetts
Current Conditions -  °F | °C
As of 11:56 PM on Wednesday 22 Oct 2014 (Local Time) from KBED Reporting Station
Light Rain Light Rain  
Wind Chill: 43°   Ceiling: 1200
Heat Index: 49°   Visibility: 8mi
Dew Point: 48°   Wind: 17mph
Humidity: 97%   Direction: 30°NNE
Pressure: 29.81"   Gusts: 30mph
Location:  42.43°N, 71.3°W
Report Text: KBED 230356Z AUTO 03015G26KT 8SM -RA OVC012 09/09 A2981 RMK AO2 PK WND 02032/0310 SLP107 P0009 T00940089 TSNO
Loading
Personal Weather Stations






























Interactive Weather Map
Tropical Storm Tracking
New forecast layout! Learn more

10-Day Weather Forecast

Advertisements
Track Severe Weather on mobile